Time;durP1;ratioP1;P1;durP2;ratioP2;P2;SDS_P1;SDS_P2;PMS_P1;PMS_P2;Temp;Humidity;BMP_temperature;BMP_pressure;BME280_temperature;BME280_humidity;BME280_pressure;Samples;Min_cycle;Max_cycle;Signal;HPM_P1;HPM_P2
2022/08/24 00:01:04;;;;;;;8.10;7.37;;;;;;;19.73;73.26;98267.06;4175321;28;21046;-86
2022/08/24 00:03:10;;;;;;;9.17;8.27;;;;;;;19.68;73.39;98266.72;4178474;28;20635;-84
2022/08/24 00:05:14;;;;;;;9.00;7.90;;;;;;;19.61;74.59;98265.69;4176530;28;21013;-84
2022/08/24 00:07:18;;;;;;;8.83;8.03;;;;;;;19.61;73.73;98268.31;4172862;28;20621;-84
2022/08/24 00:09:30;;;;;;;9.03;8.23;;;;;;;19.57;74.83;98266.97;4176444;28;20625;-84
2022/08/24 00:11:33;;;;;;;10.20;8.77;;;;;;;19.55;74.06;98263.66;4175455;28;20632;-85
2022/08/24 00:13:37;;;;;;;8.50;7.60;;;;;;;19.52;74.93;98265.78;4177120;28;20657;-84
2022/08/24 00:15:45;;;;;;;9.30;8.40;;;;;;;19.49;74.29;98266.91;4178160;28;20631;-84
2022/08/24 00:17:49;;;;;;;9.03;8.23;;;;;;;19.46;74.99;98264.56;4170424;28;20682;-84
2022/08/24 00:19:53;;;;;;;9.10;8.20;;;;;;;19.44;74.20;98263.91;4171941;28;20682;-84
2022/08/24 00:21:56;;;;;;;9.77;8.00;;;;;;;19.44;75.24;98266.56;4161629;28;20634;-84
2022/08/24 00:23:59;;;;;;;11.33;9.10;;;;;;;19.44;74.79;98265.75;4201044;28;20697;-84
2022/08/24 00:26:06;;;;;;;11.37;8.07;;;;;;;19.41;74.36;98261.56;4207627;28;20623;-83
2022/08/24 00:28:09;;;;;;;8.03;7.17;;;;;;;19.39;74.40;98271.50;4175081;28;20670;-84
2022/08/24 00:30:15;;;;;;;9.23;7.90;;;;;;;19.35;74.67;98264.00;4173364;28;21268;-84
2022/08/24 00:32:18;;;;;;;11.37;8.43;;;;;;;19.34;74.58;98261.53;4157976;28;20638;-84
2022/08/24 00:34:24;;;;;;;8.60;7.70;;;;;;;19.31;74.68;98269.78;4177637;28;20647;-84
2022/08/24 00:36:27;;;;;;;9.77;7.33;;;;;;;19.29;75.14;98266.44;4177867;28;21037;-85
2022/08/24 00:38:30;;;;;;;8.37;7.57;;;;;;;19.25;74.74;98271.22;4177176;28;20622;-84
2022/08/24 00:40:36;;;;;;;7.97;7.37;;;;;;;19.22;75.37;98270.69;4177683;28;21242;-84
2022/08/24 00:42:40;;;;;;;8.20;7.53;;;;;;;19.22;74.68;98273.34;4177403;28;20643;-84
2022/08/24 00:44:43;;;;;;;9.03;8.13;;;;;;;19.19;75.45;98271.00;4171449;28;20981;-84
2022/08/24 00:46:50;;;;;;;8.17;7.47;;;;;;;19.18;74.94;98267.50;4161286;28;21001;-84
2022/08/24 00:48:59;;;;;;;9.00;7.40;;;;;;;19.16;74.77;98268.66;4160841;28;20668;-84
2022/08/24 00:51:06;;;;;;;8.17;7.37;;;;;;;19.14;74.79;98266.16;4157360;28;20614;-84
2022/08/24 00:53:12;;;;;;;8.70;8.00;;;;;;;19.12;75.63;98267.28;4175641;28;20671;-84
2022/08/24 00:55:19;;;;;;;8.60;7.80;;;;;;;19.08;75.92;98271.25;4172940;28;20631;-84
2022/08/24 00:57:26;;;;;;;9.80;8.80;;;;;;;19.08;75.73;98268.59;4169371;28;20636;-84
2022/08/24 00:59:33;;;;;;;8.30;7.60;;;;;;;19.05;74.77;98268.91;4173909;28;20699;-84
2022/08/24 01:01:36;;;;;;;8.43;7.73;;;;;;;19.03;75.47;98268.19;4160714;28;21040;-84
2022/08/24 01:03:41;;;;;;;10.33;8.27;;;;;;;19.01;75.93;98267.50;4177609;28;20640;-84
2022/08/24 01:05:45;;;;;;;8.23;7.53;;;;;;;18.97;75.68;98274.06;4172192;28;20724;-84
2022/08/24 01:07:51;;;;;;;8.50;7.80;;;;;;;18.98;76.19;98275.75;4171940;28;20667;-84
2022/08/24 01:10:02;;;;;;;8.80;7.90;;;;;;;18.92;75.87;98266.59;4176008;28;21039;-84
2022/08/24 01:12:06;;;;;;;8.47;7.73;;;;;;;18.88;75.84;98274.97;4150615;28;20676;-84
2022/08/24 01:14:09;;;;;;;8.90;8.10;;;;;;;18.85;75.79;98280.56;4175074;28;21099;-84
2022/08/24 01:16:12;;;;;;;8.60;7.80;;;;;;;18.81;76.55;98271.28;4208370;28;20623;-84
2022/08/24 01:20:39;;;;;;;8.40;7.60;;;;;;;18.75;76.44;98271.88;4173681;28;20616;-84
2022/08/24 01:22:52;;;;;;;8.97;7.37;;;;;;;18.72;76.59;98266.06;4174903;28;20621;-84
2022/08/24 01:24:58;;;;;;;9.03;7.50;;;;;;;18.70;76.42;98282.09;4173388;28;20659;-84
2022/08/24 01:27:01;;;;;;;8.57;7.77;;;;;;;18.67;76.55;98282.38;4176193;28;20655;-84
2022/08/24 01:29:10;;;;;;;8.23;7.50;;;;;;;18.65;76.93;98281.69;4176907;28;20616;-84
2022/08/24 01:31:15;;;;;;;8.47;7.67;;;;;;;18.63;77.04;98282.84;4173820;28;20629;-84
2022/08/24 01:33:23;;;;;;;8.60;7.67;;;;;;;18.61;76.80;98276.84;4173278;28;20648;-84
2022/08/24 01:35:26;;;;;;;8.43;7.60;;;;;;;18.58;76.52;98278.00;4176960;28;21258;-84
2022/08/24 01:37:31;;;;;;;8.83;7.93;;;;;;;18.56;76.84;98265.91;4177441;28;21024;-84
2022/08/24 01:39:36;;;;;;;9.80;7.20;;;;;;;18.53;76.42;98274.13;4179155;28;20636;-84
2022/08/24 01:41:41;;;;;;;9.03;8.23;;;;;;;18.51;77.03;98276.91;4161189;28;21333;-84
2022/08/24 01:43:46;;;;;;;8.70;7.80;;;;;;;18.48;77.20;98271.13;4173216;28;20690;-84
2022/08/24 01:45:49;;;;;;;8.30;7.57;;;;;;;18.45;76.68;98272.22;4159254;28;20662;-84
2022/08/24 01:47:52;;;;;;;8.20;7.30;;;;;;;18.45;76.99;98292.53;4164096;28;20636;-84
2022/08/24 01:49:55;;;;;;;8.03;7.33;;;;;;;18.44;76.79;98273.19;4179158;28;20648;-84
2022/08/24 01:51:58;;;;;;;8.90;8.10;;;;;;;18.43;77.20;98282.13;4175611;28;21036;-84
2022/08/24 01:54:02;;;;;;;8.27;7.43;;;;;;;18.42;76.92;98291.00;4153958;28;20660;-84
2022/08/24 01:56:06;;;;;;;8.63;7.63;;;;;;;18.38;76.90;98285.34;4190859;28;20729;-84
2022/08/24 01:58:12;;;;;;;8.47;7.67;;;;;;;18.37;77.05;98286.31;4176016;28;20663;-84
2022/08/24 02:00:17;;;;;;;8.17;7.47;;;;;;;18.34;77.21;98294.53;4176581;28;20672;-84
2022/08/24 02:02:25;;;;;;;7.27;6.57;;;;;;;18.29;77.29;98286.25;4172758;28;20640;-84
2022/08/24 02:04:28;;;;;;;7.97;7.27;;;;;;;18.27;77.32;98286.38;4175396;28;20623;-84
2022/08/24 02:06:32;;;;;;;7.97;7.17;;;;;;;18.25;77.16;98283.06;4180251;28;20639;-84
2022/08/24 02:08:35;;;;;;;9.00;7.23;;;;;;;18.23;76.78;98290.28;4176314;28;20707;-84
2022/08/24 02:10:38;;;;;;;8.30;7.53;;;;;;;18.23;78.02;98287.66;4175896;28;20615;-84
2022/08/24 02:12:42;;;;;;;8.80;8.00;;;;;;;18.19;76.80;98288.94;4207050;28;20659;-84
2022/08/24 02:14:47;;;;;;;9.03;8.10;;;;;;;18.17;77.57;98293.50;4179586;28;20667;-84
2022/08/24 02:16:50;;;;;;;7.83;7.10;;;;;;;18.15;77.81;98292.00;4177671;28;20715;-84
2022/08/24 02:19:00;;;;;;;8.60;7.80;;;;;;;18.11;78.05;98294.06;4176637;28;21181;-84
2022/08/24 02:21:03;;;;;;;8.07;7.27;;;;;;;18.08;78.08;98291.72;4186199;28;20700;-84
2022/08/24 02:23:07;;;;;;;8.77;7.97;;;;;;;18.05;78.00;98291.19;4179810;28;21026;-84
2022/08/24 02:25:10;;;;;;;8.20;7.40;;;;;;;18.04;78.25;98300.06;4178645;28;20636;-84
2022/08/24 02:27:16;;;;;;;9.07;8.07;;;;;;;18.02;78.24;98294.94;4176779;28;20615;-84
2022/08/24 02:29:19;;;;;;;8.10;7.30;;;;;;;17.99;78.59;98295.22;4179838;28;20624;-84
2022/08/24 02:31:23;;;;;;;8.03;7.33;;;;;;;18.00;77.57;98304.00;4175926;28;20659;-84
2022/08/24 02:33:27;;;;;;;7.90;7.10;;;;;;;17.98;77.77;98295.38;4175654;28;20618;-84
2022/08/24 02:35:30;;;;;;;8.10;7.20;;;;;;;17.96;78.54;98305.25;4174369;28;20618;-84
2022/08/24 02:37:33;;;;;;;8.13;7.43;;;;;;;17.93;78.25;98311.63;4179642;28;21322;-84
2022/08/24 02:39:43;;;;;;;7.33;6.67;;;;;;;17.92;77.93;98298.63;4191866;28;21162;-84
2022/08/24 02:41:51;;;;;;;7.73;7.03;;;;;;;17.91;77.53;98293.47;4193599;28;20653;-85
2022/08/24 02:43:55;;;;;;;7.90;7.20;;;;;;;17.89;78.19;98298.91;4161818;28;20643;-84
2022/08/24 02:45:59;;;;;;;7.87;7.17;;;;;;;17.89;77.77;98293.63;4178284;28;20663;-84
2022/08/24 02:48:04;;;;;;;7.93;7.13;;;;;;;17.88;78.36;98293.78;4162652;28;20730;-84
2022/08/24 02:50:09;;;;;;;7.67;6.87;;;;;;;17.87;77.68;98281.53;4179258;28;20626;-85
2022/08/24 02:52:12;;;;;;;8.30;7.40;;;;;;;17.85;78.02;98291.41;4158858;28;21219;-84
2022/08/24 02:54:16;;;;;;;8.47;7.67;;;;;;;17.82;77.97;98295.16;4162222;28;21042;-85
2022/08/24 02:56:25;;;;;;;9.33;8.03;;;;;;;17.78;78.03;98292.97;4179223;28;20731;-84
2022/08/24 02:58:29;;;;;;;7.73;7.03;;;;;;;17.75;78.91;98291.44;4151551;28;20663;-84
2022/08/24 03:00:32;;;;;;;8.50;7.70;;;;;;;17.72;79.01;98294.34;4178638;28;21183;-84
2022/08/24 03:02:36;;;;;;;10.23;7.50;;;;;;;17.73;78.62;98284.66;4162874;28;20642;-84
2022/08/24 03:04:40;;;;;;;8.10;7.23;;;;;;;17.71;78.53;98289.22;4174805;28;20636;-85
2022/08/24 03:06:43;;;;;;;8.53;7.30;;;;;;;17.68;77.91;98290.34;4161966;28;20639;-84
2022/08/24 03:08:47;;;;;;;8.33;7.40;;;;;;;17.67;78.48;98287.88;4156209;28;20751;-84
2022/08/24 03:10:59;;;;;;;9.33;7.90;;;;;;;17.65;78.65;98293.28;4174372;28;21033;-84
2022/08/24 03:13:02;;;;;;;8.60;7.80;;;;;;;17.63;78.25;98289.94;4179149;28;20677;-83
2022/08/24 03:15:09;;;;;;;8.90;8.10;;;;;;;17.61;78.92;98293.72;4178811;28;20661;-84
2022/08/24 03:17:12;;;;;;;8.33;7.63;;;;;;;17.59;78.45;98293.00;4172146;28;21022;-84
2022/08/24 03:19:14;;;;;;;8.33;7.53;;;;;;;17.55;79.20;98281.91;4175652;28;20636;-84
2022/08/24 03:21:20;;;;;;;9.63;7.53;;;;;;;17.54;78.06;98282.88;4158176;28;20629;-84
2022/08/24 03:23:25;;;;;;;8.23;7.43;;;;;;;17.53;78.19;98288.31;4162371;28;20639;-85
2022/08/24 03:25:28;;;;;;;8.37;7.57;;;;;;;17.51;79.13;98284.97;4173685;28;20690;-84
2022/08/24 03:27:31;;;;;;;9.33;7.23;;;;;;;17.50;79.07;98280.69;4176969;28;21068;-84
2022/08/24 03:29:35;;;;;;;11.30;7.90;;;;;;;17.47;78.70;98281.81;4161636;28;20639;-84
2022/08/24 03:31:38;;;;;;;10.07;7.80;;;;;;;17.46;79.29;98280.13;4161232;28;20670;-85
2022/08/24 03:33:41;;;;;;;9.20;8.30;;;;;;;17.45;79.46;98276.81;4162246;28;21191;-84
2022/08/24 03:35:45;;;;;;;9.10;8.30;;;;;;;17.41;78.26;98285.97;4192800;28;20661;-84
2022/08/24 03:37:52;;;;;;;8.57;7.77;;;;;;;17.39;79.33;98277.38;4178659;28;20664;-84
2022/08/24 03:39:55;;;;;;;9.10;8.20;;;;;;;17.37;78.55;98274.88;4185801;28;20628;-84
2022/08/24 03:41:58;;;;;;;9.20;8.30;;;;;;;17.33;80.12;98280.56;4167770;28;20637;-84
2022/08/24 03:44:02;;;;;;;9.27;8.27;;;;;;;17.30;78.96;98278.22;4177834;28;20639;-84
2022/08/24 03:46:08;;;;;;;8.43;7.63;;;;;;;17.28;78.67;98285.44;4161796;28;20627;-84
2022/08/24 03:48:13;;;;;;;8.93;8.13;;;;;;;17.22;79.41;98276.28;4159627;28;21455;-84
2022/08/24 03:50:17;;;;;;;9.23;8.23;;;;;;;17.18;79.31;98282.78;4189295;28;20641;-85
2022/08/24 03:52:20;;;;;;;9.43;8.43;;;;;;;17.14;80.08;98272.69;4185502;28;20622;-84
2022/08/24 03:54:25;;;;;;;9.87;8.37;;;;;;;17.15;79.97;98287.50;4169949;28;21756;-84
2022/08/24 03:56:30;;;;;;;8.83;8.07;;;;;;;17.14;80.27;98277.94;4177573;28;21265;-84
2022/08/24 03:58:35;;;;;;;9.27;8.40;;;;;;;17.14;80.17;98288.50;4172782;28;20725;-84
2022/08/24 04:00:41;;;;;;;8.80;8.00;;;;;;;17.12;80.68;98278.09;4176419;28;21071;-84
2022/08/24 04:02:46;;;;;;;8.80;8.00;;;;;;;17.10;80.81;98280.00;4178387;28;20630;-84
2022/08/24 04:04:54;;;;;;;9.10;8.30;;;;;;;17.08;80.36;98281.16;4206851;28;21018;-84
2022/08/24 04:06:57;;;;;;;9.07;8.20;;;;;;;17.08;81.50;98283.78;4171933;28;20621;-84
2022/08/24 04:09:01;;;;;;;9.47;8.60;;;;;;;17.05;81.54;98287.53;4158872;28;20664;-87
2022/08/24 04:11:12;;;;;;;11.70;7.77;;;;;;;17.03;79.58;98285.97;4204514;28;20703;-85
2022/08/24 04:13:17;;;;;;;10.47;8.80;;;;;;;16.98;81.07;98290.84;4174171;28;20596;-85
2022/08/24 04:15:23;;;;;;;12.60;8.47;;;;;;;16.95;81.31;98298.22;4178164;28;20655;-85
2022/08/24 04:17:26;;;;;;;9.50;8.50;;;;;;;16.91;80.03;98291.53;4177869;28;21046;-84
2022/08/24 04:19:29;;;;;;;9.07;8.10;;;;;;;16.90;81.48;98293.34;4194306;28;21214;-85
2022/08/24 04:21:35;;;;;;;9.93;8.37;;;;;;;16.89;79.67;98291.69;4190074;28;21066;-85
2022/08/24 04:23:41;;;;;;;9.00;8.20;;;;;;;16.90;81.69;98295.13;4174957;28;20627;-85
2022/08/24 04:25:51;;;;;;;10.33;8.60;;;;;;;16.89;80.60;98294.31;4174748;28;20648;-85
2022/08/24 04:27:55;;;;;;;8.90;8.10;;;;;;;16.88;81.68;98292.63;4172429;28;20629;-84
2022/08/24 04:29:59;;;;;;;8.70;7.90;;;;;;;16.90;79.95;98293.34;4177903;28;20670;-84
2022/08/24 04:32:07;;;;;;;9.03;8.23;;;;;;;16.89;80.76;98289.03;4157267;28;21019;-85
2022/08/24 04:34:11;;;;;;;9.10;7.93;;;;;;;16.88;80.21;98287.38;4177516;28;20717;-85
2022/08/24 04:36:14;;;;;;;8.97;8.17;;;;;;;16.88;81.47;98291.81;4175555;28;20707;-85
2022/08/24 04:38:19;;;;;;;8.87;7.97;;;;;;;16.86;80.43;98299.03;4177961;28;20642;-85
2022/08/24 04:40:39;;;;;;;9.67;8.67;;;;;;;16.89;82.43;98301.41;4159575;28;21256;-85
2022/08/24 04:42:43;;;;;;;9.03;8.20;;;;;;;16.92;80.60;98306.41;4172341;28;20650;-85
2022/08/24 04:44:47;;;;;;;8.63;7.83;;;;;;;16.94;81.84;98312.34;4172877;28;20687;-85
2022/08/24 04:46:50;;;;;;;8.97;8.10;;;;;;;16.94;82.19;98307.06;4174101;28;20625;-85
2022/08/24 04:48:55;;;;;;;9.53;8.63;;;;;;;16.91;80.34;98308.16;4171596;28;20660;-84
2022/08/24 04:51:01;;;;;;;8.80;7.90;;;;;;;16.93;82.37;98313.31;4177593;28;20653;-85
2022/08/24 04:53:06;;;;;;;9.97;9.03;;;;;;;16.95;82.51;98316.66;4186437;28;21281;-85
2022/08/24 04:55:09;;;;;;;8.80;7.80;;;;;;;16.98;80.82;98319.00;4173997;28;20661;-85
2022/08/24 04:57:13;;;;;;;9.00;8.20;;;;;;;16.99;80.76;98316.25;4161142;28;20627;-85
2022/08/24 04:59:20;;;;;;;10.40;8.80;;;;;;;16.97;82.10;98326.06;4204194;28;20627;-85
2022/08/24 05:01:28;;;;;;;9.30;8.50;;;;;;;16.91;81.62;98316.06;4177107;28;20630;-85
2022/08/24 05:03:31;;;;;;;9.93;8.97;;;;;;;16.93;81.24;98323.84;4161494;28;20630;-85
2022/08/24 05:05:35;;;;;;;9.17;8.37;;;;;;;16.95;81.22;98319.28;4199128;28;20670;-85
2022/08/24 05:07:38;;;;;;;9.83;8.93;;;;;;;17.00;81.47;98321.38;4202433;28;21036;-85
2022/08/24 05:09:41;;;;;;;10.27;8.70;;;;;;;17.04;79.56;98328.00;4176139;28;21200;-85
2022/08/24 05:11:46;;;;;;;9.57;8.53;;;;;;;17.12;80.93;98329.97;4178379;28;20627;-85
2022/08/24 05:13:57;;;;;;;13.93;9.03;;;;;;;17.19;79.80;98331.09;4180162;28;20676;-85
2022/08/24 05:16:00;;;;;;;8.90;8.00;;;;;;;17.33;80.28;98343.88;4180320;28;20642;-84
2022/08/24 05:18:06;;;;;;;9.90;9.00;;;;;;;17.47;81.26;98339.81;4174118;28;20642;-85
2022/08/24 05:20:11;;;;;;;10.03;8.20;;;;;;;17.67;80.41;98345.91;4163544;28;21198;-85
2022/08/24 05:22:14;;;;;;;9.83;8.90;;;;;;;17.87;80.08;98350.16;4163898;28;20641;-85
2022/08/24 05:24:22;;;;;;;9.53;8.63;;;;;;;18.06;78.53;98353.56;4169381;28;20637;-85
2022/08/24 05:26:27;;;;;;;9.40;8.50;;;;;;;18.25;77.93;98350.88;4180520;28;20624;-84
2022/08/24 05:28:30;;;;;;;10.80;8.50;;;;;;;18.42;76.90;98338.56;4179631;28;20628;-84
2022/08/24 05:30:33;;;;;;;9.53;8.63;;;;;;;18.63;76.05;98352.38;4164031;28;20623;-84
2022/08/24 05:32:41;;;;;;;10.27;8.50;;;;;;;18.81;75.24;98347.94;4179959;28;20663;-85
2022/08/24 05:34:45;;;;;;;9.70;8.70;;;;;;;18.97;74.72;98353.38;4180447;28;20630;-85
2022/08/24 05:36:48;;;;;;;9.67;8.77;;;;;;;19.14;74.68;98355.22;4173620;28;21244;-85
2022/08/24 05:39:07;;;;;;;9.87;8.73;;;;;;;19.35;75.73;98359.25;4177403;28;20654;-85
2022/08/24 05:41:15;;;;;;;9.10;8.30;;;;;;;19.53;76.04;98358.25;4201046;28;20802;-85
2022/08/24 05:43:20;;;;;;;9.40;8.30;;;;;;;19.65;75.53;98362.31;4179433;28;20677;-85
2022/08/24 05:45:23;;;;;;;9.83;8.70;;;;;;;19.74;74.34;98361.41;4163661;28;21323;-85
2022/08/24 05:47:27;;;;;;;9.20;8.30;;;;;;;19.88;72.45;98368.81;4162516;28;20722;-85
2022/08/24 05:49:35;;;;;;;9.27;8.47;;;;;;;20.04;72.53;98364.44;4178124;28;20661;-85
2022/08/24 05:51:45;;;;;;;10.27;8.80;;;;;;;20.22;71.86;98365.22;4163718;28;20620;-85
2022/08/24 05:53:48;;;;;;;9.40;8.50;;;;;;;20.38;70.78;98367.94;4206701;28;21467;-85
2022/08/24 05:55:51;;;;;;;9.30;8.43;;;;;;;20.54;70.00;98368.84;4173105;28;20660;-85
2022/08/24 05:57:55;;;;;;;10.30;8.23;;;;;;;20.67;70.89;98369.25;4157188;28;20634;-85
2022/08/24 06:00:00;;;;;;;8.93;8.13;;;;;;;20.89;72.24;98384.59;4161384;28;20630;-85
2022/08/24 06:02:03;;;;;;;9.80;9.00;;;;;;;21.09;70.81;98389.44;4185785;28;20616;-86
2022/08/24 06:04:07;;;;;;;9.50;8.50;;;;;;;21.25;70.12;98381.53;4176698;28;21054;-85
2022/08/24 06:06:12;;;;;;;9.77;8.83;;;;;;;21.41;70.92;98381.56;4177005;28;20652;-85
2022/08/24 06:08:16;;;;;;;9.67;8.37;;;;;;;21.58;70.68;98392.03;4160284;28;21025;-85
2022/08/24 06:10:20;;;;;;;9.30;8.50;;;;;;;21.78;69.67;98393.38;4163597;28;20635;-85
2022/08/24 06:12:39;;;;;;;9.93;8.90;;;;;;;21.92;68.96;98390.03;4174980;28;20748;-85
2022/08/24 06:14:46;;;;;;;9.50;8.70;;;;;;;22.07;68.90;98391.00;4178176;28;20946;-85
2022/08/24 06:16:51;;;;;;;10.80;9.27;;;;;;;22.22;67.85;98394.69;4180821;28;20662;-84
2022/08/24 06:18:55;;;;;;;9.03;8.23;;;;;;;22.34;67.58;98387.03;4179631;28;20727;-85
2022/08/24 06:21:05;;;;;;;8.80;7.90;;;;;;;22.52;67.24;98384.97;4160030;28;20626;-85
2022/08/24 06:23:08;;;;;;;9.53;8.50;;;;;;;22.66;65.92;98384.25;4179438;28;21095;-85
2022/08/24 06:27:40;;;;;;;9.40;8.07;;;;;;;22.95;64.46;98389.81;4172410;28;20622;-85
2022/08/24 06:29:43;;;;;;;10.53;9.33;;;;;;;22.91;64.71;98388.44;4179741;28;20621;-85
2022/08/24 06:32:04;;;;;;;10.40;7.53;;;;;;;22.99;65.25;98391.94;4168065;28;20637;-85
2022/08/24 06:34:07;;;;;;;12.40;7.83;;;;;;;23.10;64.41;98388.88;4167321;28;20727;-85
2022/08/24 06:36:11;;;;;;;9.17;7.70;;;;;;;23.16;64.03;98388.19;4189636;28;20647;-85
2022/08/24 06:38:14;;;;;;;7.93;7.20;;;;;;;23.30;64.60;98395.41;4188457;28;20637;-85
2022/08/24 06:40:21;;;;;;;8.03;7.23;;;;;;;23.46;64.48;98395.31;4205962;28;20638;-85
2022/08/24 06:42:25;;;;;;;8.50;7.70;;;;;;;23.61;63.23;98402.38;4192185;28;20677;-85
2022/08/24 06:44:28;;;;;;;8.30;7.50;;;;;;;23.74;63.45;98400.81;4162682;28;21191;-85
2022/08/24 06:46:39;;;;;;;8.60;7.80;;;;;;;23.91;63.47;98406.81;4180975;28;20633;-85
2022/08/24 06:48:43;;;;;;;7.73;6.93;;;;;;;24.15;63.86;98415.44;4175449;28;20700;-85
2022/08/24 06:50:47;;;;;;;7.30;6.70;;;;;;;24.30;63.80;98411.78;4163005;28;20628;-86
2022/08/24 06:52:50;;;;;;;7.30;6.43;;;;;;;24.51;63.26;98409.25;4175566;28;20628;-85
2022/08/24 06:54:53;;;;;;;6.53;6.00;;;;;;;24.68;62.79;98408.88;4172758;28;21217;-85
2022/08/24 06:56:58;;;;;;;7.23;6.53;;;;;;;24.81;62.98;98402.91;4184258;28;21122;-85
2022/08/24 06:59:02;;;;;;;7.33;6.63;;;;;;;24.92;61.99;98410.44;4187236;28;21009;-85
2022/08/24 07:01:09;;;;;;;6.70;6.00;;;;;;;25.04;61.78;98409.00;4190528;28;20646;-85
2022/08/24 07:03:13;;;;;;;5.97;5.47;;;;;;;25.24;63.07;98417.06;4162830;28;20641;-85
2022/08/24 07:05:24;;;;;;;6.23;5.70;;;;;;;25.52;62.78;98417.97;4188335;28;20630;-85
2022/08/24 07:08:00;;;;;;;6.80;6.17;;;;;;;25.69;61.57;98422.09;4172551;28;20666;-85
2022/08/24 07:10:04;;;;;;;7.43;6.57;;;;;;;25.75;60.84;98415.97;4161263;28;20636;-85
2022/08/24 07:12:09;;;;;;;7.20;6.50;;;;;;;25.94;61.43;98415.34;4162036;28;21392;-85
2022/08/24 07:14:12;;;;;;;7.43;6.50;;;;;;;26.19;61.16;98414.72;4167953;28;21197;-85
2022/08/24 07:16:17;;;;;;;7.17;5.77;;;;;;;26.36;60.64;98421.50;4179352;28;20635;-85
2022/08/24 07:18:22;;;;;;;5.97;5.40;;;;;;;26.47;59.49;98420.94;4179240;28;20623;-85
2022/08/24 07:20:25;;;;;;;17.43;7.53;;;;;;;26.56;59.17;98426.75;4178855;28;20635;-85
2022/08/24 07:22:47;;;;;;;6.70;6.00;;;;;;;26.59;58.94;98422.88;4177149;28;20739;-86
2022/08/24 07:24:50;;;;;;;6.30;5.37;;;;;;;26.76;60.19;98424.22;4177207;28;20637;-85
2022/08/24 07:26:54;;;;;;;7.53;5.83;;;;;;;26.95;59.23;98423.53;4177359;28;20676;-85
2022/08/24 07:29:04;;;;;;;5.13;4.63;;;;;;;27.09;58.85;98416.19;4162366;28;20630;-85
2022/08/24 07:31:15;;;;;;;5.80;5.17;;;;;;;27.22;58.30;98410.06;4188317;28;20635;-86
2022/08/24 07:33:28;;;;;;;6.27;5.67;;;;;;;27.39;58.42;98422.06;4159442;28;20641;-85
2022/08/24 07:35:32;;;;;;;6.70;5.23;;;;;;;27.58;57.07;98411.44;4171707;28;20648;-85
2022/08/24 07:37:37;;;;;;;5.67;4.97;;;;;;;27.62;57.09;98415.38;4172086;28;21247;-85
2022/08/24 07:39:45;;;;;;;5.93;5.07;;;;;;;27.69;57.02;98419.69;4160230;28;20981;-86
2022/08/24 07:41:48;;;;;;;5.50;5.03;;;;;;;27.76;55.73;98417.03;4160804;28;20941;-86
2022/08/24 07:44:14;;;;;;;5.40;4.90;;;;;;;27.78;56.34;98414.97;4162410;28;20666;-86
2022/08/24 07:46:17;;;;;;;5.70;4.90;;;;;;;27.85;55.57;98416.63;4171493;28;20658;-86
2022/08/24 07:48:20;;;;;;;6.83;4.77;;;;;;;28.00;56.13;98412.72;4207194;28;20635;-85
2022/08/24 07:50:24;;;;;;;11.60;4.87;;;;;;;28.22;55.79;98424.13;4170643;28;20621;-86
2022/08/24 07:52:27;;;;;;;4.83;4.43;;;;;;;28.38;55.62;98421.84;4178553;28;20621;-86
2022/08/24 07:54:31;;;;;;;5.30;4.80;;;;;;;28.58;55.53;98419.97;4191313;28;20635;-86
2022/08/24 07:56:34;;;;;;;5.93;4.80;;;;;;;28.66;54.55;98420.59;4175628;28;20638;-86
2022/08/24 07:58:38;;;;;;;5.30;4.80;;;;;;;28.81;55.42;98423.88;4158345;28;20657;-85
2022/08/24 08:00:47;;;;;;;4.83;4.43;;;;;;;28.98;54.59;98421.56;4178128;28;21198;-86
2022/08/24 08:02:50;;;;;;;4.70;4.30;;;;;;;28.95;54.47;98422.00;4161606;28;20703;-86
2022/08/24 08:04:55;;;;;;;4.40;4.00;;;;;;;29.07;54.11;98418.44;4161758;28;20628;-85
2022/08/24 08:07:00;;;;;;;4.87;4.37;;;;;;;29.24;55.34;98423.13;4158630;28;20619;-85
2022/08/24 08:09:06;;;;;;;4.77;4.30;;;;;;;29.36;54.38;98421.44;4178110;28;20640;-85
2022/08/24 08:11:10;;;;;;;4.10;3.80;;;;;;;29.61;54.35;98414.28;4178207;28;21202;-85
2022/08/24 08:13:15;;;;;;;4.77;4.03;;;;;;;29.80;53.88;98427.66;4178015;28;20632;-86
2022/08/24 08:15:18;;;;;;;5.17;4.67;;;;;;;29.81;53.08;98421.19;4176232;28;20614;-86
2022/08/24 08:17:31;;;;;;;6.47;3.90;;;;;;;29.93;53.79;98421.34;4159490;28;20728;-86
2022/08/24 08:19:35;;;;;;;9.50;4.43;;;;;;;30.17;53.47;98422.19;4177169;28;20663;-85
2022/08/24 08:24:15;;;;;;;4.10;3.70;;;;;;;30.53;52.98;98416.94;4177460;28;20665;-85
2022/08/24 08:26:26;;;;;;;4.97;4.53;;;;;;;30.49;52.66;98421.09;4172153;28;20632;-86
2022/08/24 08:28:42;;;;;;;4.43;4.03;;;;;;;30.52;52.56;98417.97;4173245;28;20627;-85
2022/08/24 08:30:45;;;;;;;3.70;3.23;;;;;;;30.63;52.20;98415.38;4161642;28;20645;-85
2022/08/24 08:32:50;;;;;;;4.10;3.37;;;;;;;30.63;51.01;98410.00;4157184;28;20632;-85
2022/08/24 08:34:53;;;;;;;3.07;2.87;;;;;;;30.50;50.89;98398.50;4171062;28;20609;-86
2022/08/24 08:37:00;;;;;;;3.10;2.80;;;;;;;30.47;50.86;98404.34;4169602;28;20670;-86
2022/08/24 08:39:05;;;;;;;5.80;2.93;;;;;;;30.33;50.41;98396.59;4172237;28;21108;-86
2022/08/24 08:41:31;;;;;;;7.10;2.70;;;;;;;30.42;50.68;98393.41;4169454;28;20717;-86
2022/08/24 08:43:51;;;;;;;3.00;2.70;;;;;;;30.26;50.99;98401.19;4176626;28;20631;-86
2022/08/24 08:46:08;;;;;;;3.00;2.70;;;;;;;30.21;51.54;98399.16;4173359;28;20629;-86
2022/08/24 08:49:16;;;;;;;3.83;2.47;;;;;;;30.40;50.85;98398.22;4168690;28;20628;-86
2022/08/24 08:51:49;;;;;;;3.20;2.90;;;;;;;30.29;50.50;98401.56;4109991;28;20635;-86
2022/08/24 08:54:14;;;;;;;3.80;2.90;;;;;;;30.23;51.42;98391.69;4140292;28;20627;-85
2022/08/24 08:56:22;;;;;;;2.90;2.60;;;;;;;30.29;51.76;98390.81;4163181;28;20650;-86
2022/08/24 08:58:47;;;;;;;3.47;2.50;;;;;;;30.51;50.65;98389.41;4159860;28;20664;-85
2022/08/24 09:01:11;;;;;;;3.10;2.80;;;;;;;30.48;50.29;98401.44;4189606;28;21004;-85
2022/08/24 09:03:32;;;;;;;3.00;2.53;;;;;;;30.20;50.40;98391.31;4177538;28;20620;-85
2022/08/24 09:06:21;;;;;;;3.77;2.80;;;;;;;30.15;50.26;98393.84;4171421;28;20635;-86
2022/08/24 09:08:34;;;;;;;3.60;3.00;;;;;;;30.29;50.81;98387.28;4177267;28;21214;-86
2022/08/24 09:10:50;;;;;;;3.00;2.70;;;;;;;30.46;50.02;98414.31;4150466;28;20702;-86
2022/08/24 09:13:08;;;;;;;2.53;2.33;;;;;;;30.29;49.03;98395.38;4168933;28;21108;-86
2022/08/24 09:15:20;;;;;;;3.83;2.40;;;;;;;30.33;49.23;98383.94;4177683;28;20680;-86
2022/08/24 09:17:40;;;;;;;4.17;3.50;;;;;;;30.23;50.68;98391.69;4189183;28;21327;-86
2022/08/24 09:19:56;;;;;;;3.50;3.07;;;;;;;30.01;51.02;98382.34;4177389;28;21194;-86
2022/08/24 09:22:21;;;;;;;2.90;2.70;;;;;;;30.16;51.05;98390.94;4176730;28;20661;-86
2022/08/24 09:24:58;;;;;;;3.33;3.00;;;;;;;30.06;50.50;98376.31;4183123;28;21095;-86
2022/08/24 09:27:24;;;;;;;3.60;2.73;;;;;;;30.01;51.05;98384.22;4157186;28;20652;-86
2022/08/24 09:29:39;;;;;;;3.23;2.50;;;;;;;29.89;50.24;98385.97;4159054;28;20693;-86
2022/08/24 09:31:57;;;;;;;2.90;2.50;;;;;;;29.88;50.21;98381.63;4174404;28;20689;-86
2022/08/24 09:34:09;;;;;;;3.30;3.00;;;;;;;29.95;49.38;98382.41;4174618;28;20624;-85
2022/08/24 09:36:18;;;;;;;2.90;2.60;;;;;;;29.78;51.42;98388.50;4171905;28;21203;-85
2022/08/24 09:38:33;;;;;;;4.03;2.90;;;;;;;29.74;50.56;98374.66;4172212;28;20660;-86
2022/08/24 09:40:44;;;;;;;4.30;3.00;;;;;;;29.91;49.95;98369.59;4173388;28;20711;-86
2022/08/24 09:43:15;;;;;;;4.10;2.90;;;;;;;30.11;50.94;98377.28;4160932;28;21301;-86
2022/08/24 09:45:34;;;;;;;2.70;2.50;;;;;;;30.20;47.62;98381.34;4191422;28;20630;-86
2022/08/24 09:48:14;;;;;;;3.23;2.40;;;;;;;30.29;49.13;98379.22;4175574;28;20631;-86
2022/08/24 09:50:50;;;;;;;3.60;2.43;;;;;;;30.16;47.46;98372.09;4162597;28;20629;-86
2022/08/24 09:53:37;;;;;;;3.30;2.30;;;;;;;29.96;48.05;98363.34;4172451;28;20669;-86
2022/08/24 09:55:57;;;;;;;2.80;2.60;;;;;;;30.05;47.68;98371.97;4123778;28;20642;-85
2022/08/24 09:58:16;;;;;;;3.10;2.80;;;;;;;30.08;48.53;98376.91;4167541;28;20639;-86
2022/08/24 10:00:24;;;;;;;2.30;2.03;;;;;;;30.04;47.29;98371.16;4175693;28;20615;-86
2022/08/24 10:02:37;;;;;;;2.90;2.60;;;;;;;30.08;47.61;98377.72;4176159;28;20706;-85
2022/08/24 10:04:49;;;;;;;3.33;2.50;;;;;;;29.97;48.73;98374.94;4179777;28;20624;-86
2022/08/24 10:06:59;;;;;;;2.93;2.63;;;;;;;30.02;47.82;98367.00;4177011;28;20635;-85